Time;durP1;ratioP1;P1;durP2;ratioP2;P2;SDS_P1;SDS_P2;PMS_P1;PMS_P2;Temp;Humidity;BMP_temperature;BMP_pressure;BME280_temperature;BME280_humidity;BME280_pressure;Samples;Min_cycle;Max_cycle;Signal;HPM_P1;HPM_P2
2021/01/19 00:00:34;;;;;;;28.95;19.85;;;5.40;95.80;;;;;;5041806;28;20105;-65
2021/01/19 00:03:01;;;;;;;30.23;19.80;;;5.40;95.60;;;;;;5046434;28;20041;-65
2021/01/19 00:05:28;;;;;;;28.98;20.08;;;5.50;95.70;;;;;;5046323;28;20045;-64
2021/01/19 00:07:54;;;;;;;31.35;19.77;;;5.40;95.70;;;;;;5033305;28;20046;-65
2021/01/19 00:10:21;;;;;;;29.30;19.70;;;5.40;96.00;;;;;;5045949;28;20069;-65
2021/01/19 00:12:48;;;;;;;26.73;20.05;;;5.30;95.80;;;;;;5046224;28;20069;-65
2021/01/19 00:15:14;;;;;;;31.05;18.92;;;5.40;95.60;;;;;;5046278;28;20068;-65
2021/01/19 00:17:41;;;;;;;27.30;19.48;;;5.50;95.50;;;;;;5046016;28;20065;-64
2021/01/19 00:20:09;;;;;;;28.30;19.70;;;5.50;95.30;;;;;;5046178;28;20042;-64
2021/01/19 00:22:36;;;;;;;27.90;19.13;;;5.50;95.20;;;;;;5045796;28;20048;-65
2021/01/19 00:25:03;;;;;;;29.50;20.00;;;5.50;95.50;;;;;;5046315;28;20049;-65
2021/01/19 00:27:30;;;;;;;25.88;19.17;;;5.40;95.30;;;;;;5045895;28;20045;-64
2021/01/19 00:29:57;;;;;;;27.02;18.27;;;5.50;95.10;;;;;;5046094;28;20129;-64
2021/01/19 00:32:24;;;;;;;24.45;18.80;;;5.40;95.50;;;;;;5045469;28;20073;-65
2021/01/19 00:34:51;;;;;;;30.48;21.30;;;5.70;94.70;;;;;;5045724;28;20055;-64
2021/01/19 00:37:17;;;;;;;24.17;19.33;;;5.40;95.20;;;;;;5045723;28;20060;-65
2021/01/19 00:39:44;;;;;;;25.17;20.17;;;5.50;95.10;;;;;;5044866;28;20037;-65
2021/01/19 00:42:11;;;;;;;26.60;19.55;;;5.50;95.00;;;;;;5045522;28;20053;-64
2021/01/19 00:44:38;;;;;;;28.20;19.98;;;5.50;95.40;;;;;;5045795;28;20049;-64
2021/01/19 00:47:05;;;;;;;29.38;20.92;;;5.60;95.10;;;;;;5045604;28;20056;-64
2021/01/19 00:49:32;;;;;;;30.08;22.33;;;5.50;95.40;;;;;;5045702;28;20048;-64
2021/01/19 00:51:59;;;;;;;28.05;20.95;;;5.50;95.70;;;;;;5045074;28;20068;-65
2021/01/19 00:54:25;;;;;;;26.08;21.73;;;5.40;95.80;;;;;;5045110;28;20057;-65
2021/01/19 00:56:52;;;;;;;36.25;21.83;;;5.50;95.70;;;;;;5045770;28;20053;-64
2021/01/19 00:59:18;;;;;;;31.48;21.75;;;5.40;96.20;;;;;;5043710;28;20049;-64
2021/01/19 01:01:47;;;;;;;31.05;20.75;;;5.50;95.70;;;;;;5042983;28;20049;-65
2021/01/19 01:04:14;;;;;;;33.33;22.88;;;5.40;95.90;;;;;;5045681;28;20041;-64
2021/01/19 01:06:41;;;;;;;26.35;19.73;;;5.40;95.90;;;;;;5044962;28;20041;-65
2021/01/19 01:09:07;;;;;;;29.60;21.48;;;5.60;95.60;;;;;;5045388;28;20048;-65
2021/01/19 01:11:40;;;;;;;31.85;21.08;;;5.50;95.70;;;;;;5045000;28;20509;-64
2021/01/19 01:14:08;;;;;;;34.72;23.77;;;5.60;95.80;;;;;;5045261;28;20045;-64
2021/01/19 01:16:36;;;;;;;31.23;22.48;;;5.60;95.80;;;;;;5045027;28;20063;-65
2021/01/19 01:19:07;;;;;;;35.08;24.48;;;5.60;95.90;;;;;;5045823;28;20042;-65
2021/01/19 01:21:36;;;;;;;;;;;5.60;96.00;;;;;;5046259;28;20057;-64
2021/01/19 01:24:05;;;;;;;39.17;23.53;;;5.70;95.60;;;;;;5045317;28;19921;-64
2021/01/19 01:26:34;;;;;;;35.42;25.95;;;5.80;95.60;;;;;;5044847;28;20050;-64
2021/01/19 01:29:01;;;;;;;37.63;25.65;;;5.70;95.70;;;;;;5044968;28;20053;-64
2021/01/19 01:31:28;;;;;;;35.85;25.65;;;5.70;95.80;;;;;;5044618;28;20037;-64
2021/01/19 01:33:54;;;;;;;40.72;27.15;;;5.70;96.20;;;;;;5044647;28;20041;-64
2021/01/19 01:36:21;;;;;;;44.53;28.77;;;5.70;96.20;;;;;;5044582;28;20054;-64
2021/01/19 01:38:48;;;;;;;40.63;26.77;;;5.60;96.40;;;;;;5044638;28;20041;-65
2021/01/19 01:41:20;;;;;;;36.80;26.92;;;5.70;96.50;;;;;;5044741;28;20064;-65
2021/01/19 01:43:47;;;;;;;37.88;26.90;;;5.90;95.50;;;;;;5044403;28;20109;-64
2021/01/19 01:46:16;;;;;;;38.95;27.05;;;5.80;95.90;;;;;;5044732;28;20061;-64
2021/01/19 01:48:44;;;;;;;40.13;26.83;;;5.70;96.30;;;;;;5044973;28;20452;-64
2021/01/19 01:51:12;;;;;;;41.75;28.50;;;5.80;95.90;;;;;;5044266;28;20057;-64
2021/01/19 01:53:40;;;;;;;38.90;27.38;;;5.60;96.60;;;;;;5044563;28;20533;-64
2021/01/19 01:56:09;;;;;;;39.20;25.90;;;5.60;97.10;;;;;;5043763;28;20068;-64
2021/01/19 01:58:37;;;;;;;34.67;25.75;;;5.60;97.10;;;;;;5044563;28;20041;-65
2021/01/19 02:01:04;;;;;;;40.72;27.02;;;5.70;96.90;;;;;;5044028;28;20045;-65
2021/01/19 02:03:31;;;;;;;40.90;27.20;;;5.80;96.70;;;;;;5044164;28;20053;-65
2021/01/19 02:05:58;;;;;;;40.05;22.65;;;5.90;96.50;;;;;;5044444;28;20124;-65
2021/01/19 02:08:37;;;;;;;47.10;29.08;;;5.90;96.60;;;;;;5031177;28;20111;-65
2021/01/19 02:11:33;;;;;;;47.42;29.50;;;5.70;96.80;;;;;;5044062;28;20045;-64
2021/01/19 02:14:23;;;;;;;47.03;29.80;;;5.80;97.00;;;;;;5044424;28;20160;-65
2021/01/19 02:17:23;;;;;;;38.67;28.60;;;5.70;96.90;;;;;;5032891;28;20065;-64
2021/01/19 02:20:06;;;;;;;43.87;27.60;;;5.70;96.70;;;;;;5044168;28;20045;-64
2021/01/19 02:22:48;;;;;;;43.35;25.65;;;5.80;96.60;;;;;;5044267;28;20304;-65
2021/01/19 02:25:37;;;;;;;42.13;25.85;;;6.00;96.20;;;;;;5044327;28;20037;-65
2021/01/19 02:28:38;;;;;;;40.10;28.15;;;6.00;96.20;;;;;;5044051;28;20045;-64
2021/01/19 02:31:29;;;;;;;42.30;26.98;;;6.00;95.90;;;;;;5044183;28;20050;-64
2021/01/19 02:34:31;;;;;;;39.25;25.52;;;6.00;96.10;;;;;;5044117;28;20085;-64
2021/01/19 02:37:14;;;;;;;38.65;26.02;;;6.00;96.00;;;;;;5044361;28;20049;-64
2021/01/19 02:39:58;;;;;;;37.50;26.48;;;6.10;95.80;;;;;;5044319;28;20054;-64
2021/01/19 02:42:30;;;;;;;28.90;19.73;;;6.00;95.90;;;;;;5043923;28;20049;-64
2021/01/19 02:45:02;;;;;;;34.75;23.92;;;6.00;96.10;;;;;;5044011;28;20072;-64
2021/01/19 02:47:29;;;;;;;36.00;23.92;;;6.00;95.60;;;;;;5043956;28;20048;-65
2021/01/19 02:49:56;;;;;;;33.47;23.50;;;6.10;95.50;;;;;;5044145;28;20110;-65
2021/01/19 02:52:24;;;;;;;33.28;22.77;;;6.10;95.30;;;;;;5044437;28;20140;-65
2021/01/19 02:54:51;;;;;;;34.70;22.40;;;6.30;94.80;;;;;;5044071;28;20471;-65
2021/01/19 02:57:40;;;;;;;34.55;23.42;;;6.10;95.20;;;;;;5043749;28;20066;-65
2021/01/19 03:00:17;;;;;;;26.08;18.65;;;6.10;95.10;;;;;;5039149;28;20056;-65
2021/01/19 03:02:48;;;;;;;25.58;20.95;;;6.10;95.30;;;;;;5032704;28;20045;-65
2021/01/19 03:05:15;;;;;;;27.88;18.88;;;6.00;95.10;;;;;;5047386;28;20101;-65
2021/01/19 03:07:44;;;;;;;26.05;19.48;;;6.10;94.80;;;;;;5047354;28;20057;-65
2021/01/19 03:10:17;;;;;;;23.92;18.23;;;6.00;95.10;;;;;;5047460;28;20101;-64
2021/01/19 03:12:46;;;;;;;28.73;18.08;;;6.10;94.90;;;;;;5047158;28;20041;-65
2021/01/19 03:15:15;;;;;;;25.63;18.65;;;6.00;94.90;;;;;;5047188;28;20056;-64
2021/01/19 03:17:43;;;;;;;28.50;17.85;;;6.10;94.60;;;;;;5047184;28;20104;-64
2021/01/19 03:20:12;;;;;;;24.58;15.90;;;6.10;94.60;;;;;;5047450;28;20123;-65
2021/01/19 03:22:39;;;;;;;20.38;14.63;;;6.00;94.80;;;;;;5047066;28;20045;-65
2021/01/19 03:25:07;;;;;;;18.23;12.30;;;5.90;95.00;;;;;;5047234;28;20060;-64
2021/01/19 03:27:34;;;;;;;21.85;14.43;;;6.00;94.70;;;;;;5047053;28;20647;-64
2021/01/19 03:30:02;;;;;;;23.63;15.07;;;6.00;94.80;;;;;;5047233;28;20056;-64
2021/01/19 03:32:29;;;;;;;26.95;14.93;;;5.80;95.10;;;;;;5047128;28;20049;-65
2021/01/19 03:34:55;;;;;;;19.45;13.40;;;5.70;95.30;;;;;;5046653;28;20082;-65
2021/01/19 03:37:22;;;;;;;18.45;11.55;;;5.90;95.10;;;;;;5046902;28;20072;-64
2021/01/19 03:39:49;;;;;;;20.77;11.63;;;5.80;95.00;;;;;;5046794;28;20147;-64
2021/01/19 03:42:15;;;;;;;20.42;11.85;;;5.80;94.60;;;;;;5046731;28;20049;-65
2021/01/19 03:44:42;;;;;;;11.10;8.02;;;6.00;94.90;;;;;;5046690;28;20041;-64
2021/01/19 03:47:08;;;;;;;17.98;11.00;;;6.20;94.10;;;;;;5046737;28;20045;-65
2021/01/19 03:49:35;;;;;;;15.90;9.55;;;6.20;94.30;;;;;;5046953;28;20064;-64
2021/01/19 03:52:02;;;;;;;19.27;11.23;;;6.00;94.60;;;;;;5046389;28;20049;-65
2021/01/19 03:54:28;;;;;;;14.90;7.55;;;6.00;94.80;;;;;;5046362;28;20039;-64
2021/01/19 03:56:54;;;;;;;13.88;8.75;;;6.20;94.30;;;;;;5046050;28;20481;-64
2021/01/19 03:59:20;;;;;;;14.57;9.05;;;6.10;94.10;;;;;;5043808;28;20065;-65
2021/01/19 04:01:49;;;;;;;15.82;7.95;;;5.70;95.00;;;;;;5044281;28;20131;-64
2021/01/19 04:04:15;;;;;;;15.57;8.05;;;5.70;95.20;;;;;;5046418;28;20056;-64
2021/01/19 04:06:42;;;;;;;12.40;7.85;;;5.60;95.30;;;;;;5046110;28;20049;-64
2021/01/19 04:09:08;;;;;;;15.40;7.82;;;5.60;95.60;;;;;;5046350;28;20054;-65
2021/01/19 04:11:35;;;;;;;18.83;7.60;;;5.70;95.30;;;;;;5046315;28;20068;-64
2021/01/19 04:14:02;;;;;;;14.15;6.68;;;5.60;95.30;;;;;;5046111;28;20060;-65
2021/01/19 04:16:28;;;;;;;16.85;7.20;;;5.50;95.50;;;;;;5045980;28;20049;-64
2021/01/19 04:18:55;;;;;;;14.77;6.63;;;5.80;95.00;;;;;;5045977;28;20136;-64
2021/01/19 04:21:23;;;;;;;16.67;6.72;;;5.70;94.90;;;;;;5045998;28;20080;-64
2021/01/19 04:23:49;;;;;;;15.77;5.97;;;5.60;95.30;;;;;;5046269;28;20112;-64
2021/01/19 04:26:17;;;;;;;15.02;5.90;;;5.70;94.80;;;;;;5045814;28;20441;-64
2021/01/19 04:28:44;;;;;;;10.68;5.25;;;5.60;95.20;;;;;;5046047;28;20052;-64
2021/01/19 04:31:10;;;;;;;10.38;6.18;;;5.70;95.20;;;;;;5045409;28;20049;-64
2021/01/19 04:33:37;;;;;;;12.07;5.57;;;5.70;94.70;;;;;;5045993;28;20501;-64
2021/01/19 04:36:04;;;;;;;11.75;6.40;;;5.50;95.10;;;;;;5046314;28;20079;-64
2021/01/19 04:38:31;;;;;;;11.32;4.93;;;5.40;95.30;;;;;;5045714;28;20062;-65
2021/01/19 04:40:58;;;;;;;9.98;5.43;;;5.50;95.70;;;;;;5045818;28;20049;-64
2021/01/19 04:43:26;;;;;;;15.88;6.30;;;5.70;94.80;;;;;;5045402;28;20105;-65
2021/01/19 04:45:54;;;;;;;12.43;5.07;;;5.70;94.70;;;;;;5046317;28;20053;-65
2021/01/19 04:48:21;;;;;;;10.18;5.45;;;5.70;94.90;;;;;;5045281;28;20037;-64
2021/01/19 04:50:48;;;;;;;12.27;5.22;;;5.50;95.20;;;;;;5045538;28;20056;-64
2021/01/19 04:53:18;;;;;;;14.23;5.72;;;5.70;94.60;;;;;;5045664;28;20045;-64
2021/01/19 04:55:54;;;;;;;10.65;5.63;;;5.60;94.80;;;;;;5045092;28;20140;-64
2021/01/19 04:58:23;;;;;;;13.05;5.97;;;5.60;94.90;;;;;;5045065;28;20097;-64
2021/01/19 05:01:12;;;;;;;12.63;5.57;;;5.40;95.30;;;;;;5036446;28;20076;-64
2021/01/19 05:03:41;;;;;;;16.57;5.90;;;5.40;95.00;;;;;;5033087;28;20057;-64
2021/01/19 05:06:21;;;;;;;10.82;5.10;;;5.60;94.90;;;;;;5044600;28;20311;-64
2021/01/19 05:08:55;;;;;;;14.38;6.07;;;5.50;94.90;;;;;;5045208;28;20140;-65
2021/01/19 05:11:26;;;;;;;11.60;5.78;;;5.40;95.10;;;;;;5044917;28;20093;-64
2021/01/19 05:13:54;;;;;;;9.02;5.15;;;5.30;95.60;;;;;;5045294;28;20045;-64
2021/01/19 05:16:37;;;;;;;11.40;5.10;;;5.40;95.50;;;;;;5044669;28;20041;-64
2021/01/19 05:19:05;;;;;;;7.38;4.30;;;5.40;95.60;;;;;;5045252;28;20113;-65
2021/01/19 05:21:39;;;;;;;10.07;4.85;;;5.40;95.40;;;;;;5044661;28;20060;-65
2021/01/19 05:24:06;;;;;;;10.75;5.78;;;5.40;95.50;;;;;;5043910;28;20049;-65
2021/01/19 05:26:34;;;;;;;11.55;6.38;;;5.40;95.10;;;;;;5044399;28;20102;-64
2021/01/19 05:29:05;;;;;;;9.73;5.90;;;5.40;95.40;;;;;;5045514;28;20045;-64
2021/01/19 05:31:33;;;;;;;9.93;5.05;;;5.30;95.80;;;;;;5045968;28;20045;-64
2021/01/19 05:34:11;;;;;;;9.73;6.13;;;5.40;95.70;;;;;;5045024;28;20537;-64
2021/01/19 05:36:39;;;;;;;9.27;5.43;;;5.40;95.70;;;;;;5044597;28;20057;-64
2021/01/19 05:39:09;;;;;;;13.15;5.65;;;5.40;95.70;;;;;;5044677;28;20584;-65
2021/01/19 05:41:40;;;;;;;11.00;5.80;;;5.40;95.60;;;;;;5044855;28;20046;-64
2021/01/19 05:44:12;;;;;;;9.40;5.47;;;5.40;95.50;;;;;;5044688;28;20046;-64
2021/01/19 05:47:03;;;;;;;8.85;4.88;;;5.40;95.40;;;;;;5044539;28;20064;-65
2021/01/19 05:49:29;;;;;;;;;;;5.50;95.40;;;;;;5056788;28;20099;-64
2021/01/19 05:52:07;;;;;;;8.82;5.75;;;5.40;95.40;;;;;;5050139;28;19928;-63
2021/01/19 05:54:50;;;;;;;8.10;5.22;;;5.40;95.60;;;;;;5036029;28;20068;-65
2021/01/19 05:57:24;;;;;;;10.43;5.80;;;5.50;95.40;;;;;;5044034;28;20061;-65
2021/01/19 06:00:01;;;;;;;9.15;6.28;;;5.30;95.90;;;;;;5037513;28;20049;-63
2021/01/19 06:02:43;;;;;;;6.93;5.20;;;5.50;95.40;;;;;;5029039;28;20762;-65
2021/01/19 06:05:10;;;;;;;12.57;6.75;;;5.60;95.20;;;;;;5061947;28;20551;-66
2021/01/19 06:07:46;;;;;;;7.75;6.15;;;5.50;95.40;;;;;;5056530;28;20140;-65
2021/01/19 06:10:20;;;;;;;6.80;5.93;;;5.40;95.40;;;;;;5063388;28;20045;-64
2021/01/19 06:12:47;;;;;;;9.30;6.05;;;5.30;95.80;;;;;;5054263;28;20102;-64
2021/01/19 06:15:14;;;;;;;8.25;5.50;;;5.60;95.50;;;;;;5045968;28;20044;-65
2021/01/19 06:17:40;;;;;;;9.20;5.57;;;5.70;95.00;;;;;;5073400;28;20120;-65
2021/01/19 06:20:07;;;;;;;8.52;6.13;;;5.60;95.30;;;;;;5054305;28;20037;-66
2021/01/19 06:22:34;;;;;;;7.78;6.13;;;5.50;95.60;;;;;;5085139;28;20072;-65
2021/01/19 06:25:03;;;;;;;6.57;5.20;;;5.40;95.90;;;;;;5054825;28;20033;-63
2021/01/19 06:27:32;;;;;;;7.07;5.78;;;5.50;95.70;;;;;;5073219;28;20065;-63
2021/01/19 06:29:58;;;;;;;7.93;6.13;;;5.40;95.90;;;;;;5052912;28;20508;-63
2021/01/19 06:32:30;;;;;;;6.60;5.38;;;5.30;96.20;;;;;;5045395;28;20142;-63
2021/01/19 06:35:09;;;;;;;7.88;6.07;;;5.40;96.00;;;;;;5046882;28;20050;-63
2021/01/19 06:37:35;;;;;;;7.55;5.40;;;5.50;95.80;;;;;;5040210;28;20053;-65
2021/01/19 06:40:11;;;;;;;6.45;5.75;;;5.50;95.90;;;;;;5055927;28;20033;-66
2021/01/19 06:42:38;;;;;;;7.22;6.53;;;5.50;95.90;;;;;;5042103;28;20084;-66
2021/01/19 06:45:12;;;;;;;7.90;6.40;;;5.40;96.30;;;;;;5055875;28;20060;-66
2021/01/19 06:47:47;;;;;;;8.27;6.15;;;5.40;96.00;;;;;;5067094;28;20057;-66
2021/01/19 06:50:14;;;;;;;7.70;5.72;;;5.40;96.30;;;;;;5050402;28;20426;-66
2021/01/19 06:52:41;;;;;;;5.75;5.15;;;5.50;96.00;;;;;;5067555;28;20053;-66
2021/01/19 06:55:23;;;;;;;6.65;5.55;;;5.70;95.50;;;;;;5052914;28;20499;-66
2021/01/19 06:58:32;;;;;;;6.88;5.68;;;5.50;95.80;;;;;;5044063;28;20399;-66
2021/01/19 07:01:01;;;;;;;7.72;5.25;;;5.50;96.00;;;;;;5036738;28;20364;-66
2021/01/19 07:03:27;;;;;;;5.95;5.35;;;5.60;95.70;;;;;;5066282;28;20048;-66
2021/01/19 07:06:00;;;;;;;5.88;5.28;;;5.40;96.10;;;;;;5053676;28;20127;-66
2021/01/19 07:08:55;;;;;;;5.90;5.28;;;5.40;96.50;;;;;;5066000;28;20371;-66
2021/01/19 07:11:30;;;;;;;8.25;6.20;;;5.50;96.20;;;;;;5034320;28;20091;-65
2021/01/19 07:14:10;;;;;;;6.88;5.03;;;5.50;96.00;;;;;;5060850;28;20068;-66
2021/01/19 07:16:57;;;;;;;;;;;5.60;96.00;;;;;;5043034;28;20079;-65
2021/01/19 07:19:38;;;;;;;5.10;3.90;;;5.50;96.40;;;;;;5041464;28;19921;-66
2021/01/19 07:22:08;;;;;;;5.57;4.53;;;5.70;95.80;;;;;;5059494;28;20041;-64
2021/01/19 07:24:39;;;;;;;5.60;4.78;;;5.90;95.60;;;;;;5042242;28;20100;-65
2021/01/19 07:27:12;;;;;;;8.95;4.75;;;5.90;95.30;;;;;;5053843;28;20219;-65
2021/01/19 07:29:39;;;;;;;7.00;6.03;;;5.80;95.60;;;;;;5046017;28;20086;-65
2021/01/19 07:32:18;;;;;;;5.97;5.25;;;5.70;96.10;;;;;;5049891;28;20048;-65
2021/01/19 07:34:47;;;;;;;8.40;5.55;;;5.60;96.40;;;;;;5039009;28;20065;-65
2021/01/19 07:37:13;;;;;;;6.15;5.20;;;5.70;96.40;;;;;;5048754;28;20134;-71
2021/01/19 07:39:40;;;;;;;5.35;4.85;;;5.70;96.20;;;;;;5046574;28;20044;-68
2021/01/19 07:42:18;;;;;;;5.85;5.25;;;5.70;96.40;;;;;;5053691;28;20063;-67
2021/01/19 07:45:15;;;;;;;6.00;5.20;;;5.70;96.40;;;;;;5047578;28;20339;-69
2021/01/19 07:47:45;;;;;;;5.88;4.18;;;5.70;96.20;;;;;;5003119;28;20058;-68
2021/01/19 07:50:19;;;;;;;4.93;4.47;;;5.80;96.00;;;;;;5017873;28;20049;-68
2021/01/19 07:52:47;;;;;;;5.30;4.40;;;5.80;96.00;;;;;;5030657;28;20056;-65
2021/01/19 07:55:19;;;;;;;4.80;4.18;;;5.80;95.90;;;;;;5018142;28;20057;-67
2021/01/19 07:57:48;;;;;;;5.03;4.40;;;5.80;96.20;;;;;;5031517;28;20087;-66
2021/01/19 08:00:25;;;;;;;6.03;4.85;;;5.80;96.10;;;;;;5029743;28;20050;-66
2021/01/19 08:03:05;;;;;;;5.03;4.32;;;5.90;96.10;;;;;;5067922;28;20056;-66
2021/01/19 08:05:32;;;;;;;4.78;4.38;;;5.90;95.90;;;;;;5040518;28;20064;-66
2021/01/19 08:07:59;;;;;;;4.95;4.10;;;5.90;95.80;;;;;;5060586;28;20083;-66
2021/01/19 08:10:28;;;;;;;4.85;4.35;;;5.90;96.10;;;;;;5037948;28;20053;-66
2021/01/19 08:12:56;;;;;;;5.70;5.00;;;5.90;96.20;;;;;;5064434;28;20063;-66
2021/01/19 08:15:26;;;;;;;5.93;4.72;;;5.90;95.90;;;;;;5045721;28;20045;-67
2021/01/19 08:17:53;;;;;;;;;;;5.90;96.10;;;;;;5068842;28;20049;-66
2021/01/19 08:20:32;;;;;;;5.40;4.30;;;5.80;96.30;;;;;;5037662;28;20036;-66
2021/01/19 08:23:17;;;;;;;4.40;4.00;;;5.80;96.70;;;;;;5060191;28;20127;-66
2021/01/19 08:25:44;;;;;;;5.47;4.32;;;5.90;96.10;;;;;;5037291;28;20130;-66
2021/01/19 08:28:13;;;;;;;5.15;4.38;;;5.90;95.90;;;;;;5060200;28;20041;-66
2021/01/19 08:30:40;;;;;;;5.13;4.63;;;5.80;96.20;;;;;;5047052;28;20111;-66
2021/01/19 08:33:07;;;;;;;5.38;4.15;;;6.00;95.90;;;;;;5049560;28;20049;-66
2021/01/19 08:35:38;;;;;;;5.40;4.90;;;5.90;96.10;;;;;;5046283;28;20099;-66
2021/01/19 08:38:06;;;;;;;5.72;4.13;;;6.10;95.80;;;;;;5050867;28;20056;-66
2021/01/19 08:40:35;;;;;;;3.75;3.15;;;6.10;95.30;;;;;;5043898;28;20048;-66
2021/01/19 08:43:06;;;;;;;5.50;4.45;;;6.20;95.80;;;;;;5052067;28;20056;-66
2021/01/19 08:45:38;;;;;;;5.18;3.78;;;6.20;95.40;;;;;;5043984;28;20051;-66
2021/01/19 08:48:07;;;;;;;4.28;3.80;;;6.00;95.80;;;;;;5051206;28;20053;-66
2021/01/19 08:50:39;;;;;;;3.45;3.10;;;6.00;96.00;;;;;;5040617;28;20516;-66
2021/01/19 08:53:14;;;;;;;4.28;3.20;;;6.20;95.90;;;;;;5049731;28;20099;-66
2021/01/19 08:55:43;;;;;;;4.15;3.75;;;6.10;95.70;;;;;;5027035;28;20053;-66
2021/01/19 08:58:17;;;;;;;4.65;4.10;;;6.10;95.80;;;;;;5054786;28;20059;-66
2021/01/19 09:00:44;;;;;;;4.63;3.88;;;6.10;96.00;;;;;;5042068;28;20045;-66
2021/01/19 09:03:16;;;;;;;6.28;4.05;;;6.00;96.20;;;;;;5064876;28;20044;-66
2021/01/19 09:05:43;;;;;;;5.97;4.20;;;6.00;96.40;;;;;;5046840;28;20055;-66
2021/01/19 09:08:18;;;;;;;6.78;4.63;;;6.10;96.50;;;;;;5059041;28;20396;-66
2021/01/19 09:10:46;;;;;;;4.55;4.15;;;6.10;96.30;;;;;;5037521;28;20041;-66
2021/01/19 09:13:12;;;;;;;4.00;3.60;;;6.00;96.60;;;;;;5059364;28;20042;-66
2021/01/19 09:15:43;;;;;;;5.07;4.05;;;6.00;96.70;;;;;;5036624;28;20720;-66
2021/01/19 09:18:17;;;;;;;4.10;3.70;;;6.00;96.40;;;;;;5058942;28;20056;-66
2021/01/19 09:20:44;;;;;;;4.50;3.70;;;6.10;96.40;;;;;;5036669;28;20104;-66
2021/01/19 09:23:17;;;;;;;4.78;4.30;;;6.30;96.20;;;;;;5059118;28;20055;-66
2021/01/19 09:25:47;;;;;;;4.28;3.83;;;6.20;96.40;;;;;;5036599;28;20045;-66
2021/01/19 09:28:15;;;;;;;4.78;4.13;;;6.10;96.50;;;;;;5045834;28;20806;-66
2021/01/19 09:30:42;;;;;;;5.43;4.00;;;6.20;96.50;;;;;;5037987;28;20116;-66
2021/01/19 09:33:12;;;;;;;4.25;3.58;;;6.30;96.30;;;;;;5058577;28;20115;-66
2021/01/19 09:35:40;;;;;;;5.38;3.55;;;6.30;96.40;;;;;;5036549;28;20121;-66
2021/01/19 09:38:17;;;;;;;4.05;3.65;;;6.40;96.30;;;;;;5058950;28;20052;-66
2021/01/19 09:40:45;;;;;;;4.65;4.15;;;6.40;96.10;;;;;;5036091;28;20053;-66
2021/01/19 09:43:17;;;;;;;5.00;4.50;;;6.50;96.00;;;;;;5053580;28;20055;-66
2021/01/19 09:45:44;;;;;;;4.43;4.03;;;6.40;96.40;;;;;;5037974;28;20041;-66
2021/01/19 09:48:13;;;;;;;4.80;4.13;;;6.20;97.00;;;;;;5059069;28;20033;-67
2021/01/19 09:50:40;;;;;;;5.15;4.30;;;6.30;97.10;;;;;;5037631;28;20041;-66
2021/01/19 09:53:06;;;;;;;5.45;4.30;;;6.30;96.90;;;;;;5061289;28;20053;-66
2021/01/19 09:55:33;;;;;;;5.07;4.15;;;6.20;97.60;;;;;;5038277;28;20064;-67
2021/01/19 09:58:02;;;;;;;4.45;4.05;;;6.30;97.40;;;;;;5058081;28;20107;-66
2021/01/19 10:00:34;;;;;;;5.25;4.57;;;6.30;97.40;;;;;;5032272;28;20046;-66
2021/01/19 10:03:20;;;;;;;9.15;7.40;;;6.40;97.20;;;;;;5042983;28;20052;-66
2021/01/19 10:06:05;;;;;;;4.82;4.22;;;6.30;97.60;;;;;;5044378;28;20049;-66
2021/01/19 10:08:33;;;;;;;6.00;5.35;;;6.40;97.50;;;;;;5025455;28;20080;-66
2021/01/19 10:11:00;;;;;;;5.18;3.92;;;6.40;97.40;;;;;;5036203;28;20049;-66
2021/01/19 10:13:32;;;;;;;4.97;3.97;;;6.60;97.50;;;;;;5062600;28;20503;-66
2021/01/19 10:16:05;;;;;;;5.13;4.57;;;6.50;97.40;;;;;;5041361;28;20046;-66
2021/01/19 10:18:33;;;;;;;4.72;3.67;;;6.50;97.80;;;;;;5029365;28;20057;-66
2021/01/19 10:20:59;;;;;;;4.93;4.43;;;6.60;97.60;;;;;;5040007;28;20056;-67
2021/01/19 10:23:31;;;;;;;5.13;4.50;;;6.60;97.50;;;;;;5062335;28;20045;-66
2021/01/19 10:26:11;;;;;;;4.95;4.47;;;6.80;97.20;;;;;;5039901;28;20072;-67
2021/01/19 10:31:28;;;;;;;5.40;4.57;;;6.70;97.80;;;;;;5033615;28;20056;-67
2021/01/19 10:34:00;;;;;;;4.65;4.10;;;6.70;98.30;;;;;;5067222;28;20038;-67
2021/01/19 10:36:29;;;;;;;5.47;4.57;;;6.80;98.30;;;;;;5030191;28;20053;-67
2021/01/19 10:39:04;;;;;;;4.78;4.13;;;6.90;97.90;;;;;;5071824;28;20049;-67
2021/01/19 10:41:30;;;;;;;5.25;4.75;;;7.00;98.00;;;;;;5034139;28;20418;-67
2021/01/19 10:43:58;;;;;;;5.20;4.47;;;7.00;98.00;;;;;;5082454;28;20053;-67
2021/01/19 10:46:27;;;;;;;5.53;4.80;;;7.10;98.00;;;;;;5039652;28;20065;-66
2021/01/19 10:49:20;;;;;;;5.40;4.60;;;7.10;98.30;;;;;;5028326;28;20087;-66
2021/01/19 10:51:51;;;;;;;5.90;5.00;;;7.10;98.40;;;;;;5059602;28;20344;-66
2021/01/19 10:54:19;;;;;;;7.22;4.90;;;7.10;98.60;;;;;;5074358;28;20130;-66
2021/01/19 10:56:58;;;;;;;6.28;4.80;;;7.20;98.50;;;;;;5039151;28;20056;-66
2021/01/19 10:59:25;;;;;;;5.95;4.72;;;7.20;98.70;;;;;;5058123;28;20069;-66
2021/01/19 11:01:51;;;;;;;5.43;4.18;;;7.30;98.90;;;;;;5033676;28;20087;-67
2021/01/19 11:04:18;;;;;;;5.10;3.70;;;7.40;98.80;;;;;;5064609;28;20264;-66
2021/01/19 11:06:46;;;;;;;6.60;4.50;;;7.50;98.80;;;;;;5033092;28;20049;-66
2021/01/19 11:09:13;;;;;;;5.22;4.13;;;7.50;98.90;;;;;;5066965;28;20364;-66
2021/01/19 11:11:39;;;;;;;5.03;4.22;;;7.50;99.20;;;;;;5037444;28;20041;-66
2021/01/19 11:14:08;;;;;;;5.25;3.65;;;7.60;99.00;;;;;;5070287;28;20067;-66
2021/01/19 11:16:41;;;;;;;3.90;3.20;;;7.70;99.00;;;;;;5030612;28;20647;-66
2021/01/19 11:19:10;;;;;;;6.15;3.10;;;7.80;99.10;;;;;;5061652;28;20056;-66
2021/01/19 11:21:39;;;;;;;5.20;3.20;;;7.80;99.00;;;;;;5033927;28;20054;-66
2021/01/19 11:24:08;;;;;;;5.72;2.78;;;7.80;99.20;;;;;;5053088;28;20172;-65
2021/01/19 11:26:38;;;;;;;3.50;2.83;;;7.90;99.20;;;;;;5042368;28;20128;-66
2021/01/19 11:29:05;;;;;;;3.80;2.65;;;8.00;99.00;;;;;;5039179;28;20053;-66
2021/01/19 11:31:32;;;;;;;4.70;3.05;;;8.00;99.10;;;;;;5038505;28;20049;-66
2021/01/19 11:34:02;;;;;;;6.72;4.13;;;8.00;99.20;;;;;;5049001;28;20057;-66
2021/01/19 11:36:32;;;;;;;6.95;4.22;;;8.10;99.30;;;;;;5039347;28;20045;-66
2021/01/19 11:39:00;;;;;;;5.75;3.67;;;8.10;99.30;;;;;;5054376;28;20144;-66
2021/01/19 11:41:28;;;;;;;5.30;3.63;;;8.20;99.70;;;;;;5043412;28;20041;-66
2021/01/19 11:43:55;;;;;;;4.60;3.45;;;8.30;99.50;;;;;;5051820;28;20061;-66
2021/01/19 11:46:28;;;;;;;5.70;3.88;;;8.30;99.00;;;;;;5034911;28;20038;-66
2021/01/19 11:48:58;;;;;;;5.93;3.78;;;8.30;99.30;;;;;;5050764;28;20100;-67
2021/01/19 11:51:26;;;;;;;4.53;2.97;;;8.30;99.30;;;;;;5050949;28;20068;-66
2021/01/19 11:53:56;;;;;;;4.93;2.70;;;8.40;99.50;;;;;;5070780;28;20047;-66
2021/01/19 11:56:37;;;;;;;4.10;2.70;;;8.30;99.60;;;;;;5055282;28;20120;-67
2021/01/19 11:59:06;;;;;;;4.57;2.88;;;8.40;99.20;;;;;;5074405;28;20290;-66
2021/01/19 12:01:33;;;;;;;7.22;3.30;;;8.50;99.10;;;;;;5048320;28;20047;-66
2021/01/19 12:04:02;;;;;;;5.53;3.83;;;8.50;99.30;;;;;;5066967;28;20079;-66
2021/01/19 12:06:39;;;;;;;10.00;4.47;;;8.40;99.30;;;;;;5042937;28;20060;-67
2021/01/19 12:09:08;;;;;;;12.60;4.63;;;8.40;99.50;;;;;;5047189;28;20049;-67
2021/01/19 12:11:39;;;;;;;12.90;5.05;;;8.50;99.10;;;;;;5050750;28;20398;-67
2021/01/19 12:14:05;;;;;;;13.13;5.65;;;8.50;99.20;;;;;;5046311;28;20476;-67
2021/01/19 12:16:31;;;;;;;12.80;4.88;;;8.50;99.50;;;;;;5068916;28;20055;-67
2021/01/19 12:18:56;;;;;;;14.70;5.22;;;8.50;99.50;;;;;;5049528;28;20771;-66
2021/01/19 12:21:22;;;;;;;9.48;3.92;;;8.60;99.30;;;;;;5076839;28;20045;-66
2021/01/19 12:23:48;;;;;;;14.27;5.20;;;8.60;99.20;;;;;;5049672;28;20111;-67
2021/01/19 12:26:15;;;;;;;12.85;4.55;;;8.70;99.30;;;;;;5071108;28;20575;-67
2021/01/19 12:28:42;;;;;;;12.90;4.03;;;8.70;99.00;;;;;;5044919;28;20048;-67
2021/01/19 12:31:09;;;;;;;12.68;3.60;;;8.90;98.60;;;;;;5080128;28;20041;-67
2021/01/19 12:33:37;;;;;;;11.82;3.13;;;8.90;98.20;;;;;;5046218;28;20045;-67
2021/01/19 12:36:03;;;;;;;12.10;3.10;;;8.90;98.30;;;;;;5050212;28;20053;-67
2021/01/19 12:38:29;;;;;;;10.32;3.05;;;8.90;98.30;;;;;;5045312;28;20069;-67
2021/01/19 12:40:55;;;;;;;12.05;3.47;;;8.90;98.40;;;;;;5063521;28;20045;-67
2021/01/19 12:43:21;;;;;;;10.60;3.38;;;9.00;98.30;;;;;;5037500;28;20053;-67
2021/01/19 12:45:47;;;;;;;11.80;2.88;;;9.00;98.20;;;;;;5042307;28;20048;-68
2021/01/19 12:48:12;;;;;;;10.85;2.28;;;9.00;98.10;;;;;;5044923;28;20044;-67
2021/01/19 12:50:41;;;;;;;9.60;2.22;;;9.00;97.90;;;;;;5058347;28;20334;-67
2021/01/19 12:53:06;;;;;;;13.35;3.10;;;9.00;97.70;;;;;;5047109;28;20045;-67
2021/01/19 12:55:32;;;;;;;8.20;2.55;;;9.00;97.60;;;;;;5036563;28;20544;-68
2021/01/19 12:57:59;;;;;;;9.30;2.35;;;9.10;97.60;;;;;;5037171;28;20049;-67
2021/01/19 13:00:26;;;;;;;11.02;3.20;;;9.10;97.50;;;;;;5057837;28;20056;-67
2021/01/19 13:02:52;;;;;;;8.18;2.50;;;9.10;97.70;;;;;;5052273;28;20069;-67
2021/01/19 13:05:19;;;;;;;10.27;2.70;;;9.00;97.90;;;;;;5052669;28;20086;-68
2021/01/19 13:07:45;;;;;;;11.15;2.85;;;9.00;98.20;;;;;;5050251;28;20067;-67
2021/01/19 13:10:11;;;;;;;9.73;2.55;;;9.10;98.10;;;;;;5066318;28;20059;-67